Time;durP1;ratioP1;P1;durP2;ratioP2;P2;SDS_P1;SDS_P2;PMS_P1;PMS_P2;Temp;Humidity;BMP_temperature;BMP_pressure;BME280_temperature;BME280_humidity;BME280_pressure;Samples;Min_cycle;Max_cycle;Signal;HPM_P1;HPM_P2
2020/12/30 00:00:12;;;;;;;3.15;1.85;;;2.30;99.90;;;;;;5087323;28;20484;-73
2020/12/30 00:02:38;;;;;;;3.67;1.80;;;2.30;99.90;;;;;;5087464;28;20461;-72
2020/12/30 00:05:09;;;;;;;2.50;1.75;;;2.30;99.90;;;;;;5092462;28;20024;-72
2020/12/30 00:07:36;;;;;;;3.05;1.77;;;2.30;99.90;;;;;;5091621;28;20090;-71
2020/12/30 00:10:03;;;;;;;3.08;1.60;;;2.40;99.90;;;;;;5092134;28;20024;-73
2020/12/30 00:12:31;;;;;;;5.20;1.88;;;2.40;99.90;;;;;;5091167;28;20028;-72
2020/12/30 00:14:57;;;;;;;1.60;1.15;;;2.50;99.90;;;;;;5092175;28;20085;-73
2020/12/30 00:17:23;;;;;;;2.47;1.15;;;2.60;99.90;;;;;;5091026;28;20111;-72
2020/12/30 00:19:50;;;;;;;4.68;1.40;;;2.60;99.90;;;;;;5091903;28;20028;-71
2020/12/30 00:22:16;;;;;;;2.05;1.10;;;2.70;99.90;;;;;;5090761;28;20028;-70
2020/12/30 00:24:41;;;;;;;1.55;0.93;;;2.70;99.90;;;;;;5091740;28;20020;-72
2020/12/30 00:27:07;;;;;;;2.88;1.27;;;2.70;99.90;;;;;;5091307;28;20464;-73
2020/12/30 00:29:33;;;;;;;3.42;1.20;;;2.70;99.90;;;;;;5073491;28;20114;-68
2020/12/30 00:31:59;;;;;;;3.22;1.20;;;2.70;99.90;;;;;;5091877;28;20114;-72
2020/12/30 00:34:25;;;;;;;2.38;1.40;;;2.80;99.90;;;;;;5090735;28;20119;-71
2020/12/30 00:36:51;;;;;;;2.55;1.45;;;2.80;99.90;;;;;;5091949;28;20099;-74
2020/12/30 00:39:17;;;;;;;2.90;1.45;;;2.80;99.90;;;;;;5072428;28;20028;-69
2020/12/30 00:41:43;;;;;;;3.42;1.63;;;2.70;99.90;;;;;;5091751;28;20506;-70
2020/12/30 00:44:09;;;;;;;3.28;1.65;;;2.70;99.90;;;;;;5091373;28;20028;-73
2020/12/30 00:46:35;;;;;;;2.75;1.83;;;2.60;99.90;;;;;;5091319;28;20035;-71
2020/12/30 00:49:01;;;;;;;1.63;1.50;;;2.50;99.90;;;;;;5091843;28;20024;-69
2020/12/30 00:51:27;;;;;;;4.28;1.92;;;2.40;99.90;;;;;;5072719;28;20659;-71
2020/12/30 00:53:52;;;;;;;2.90;1.80;;;2.30;99.90;;;;;;5091268;28;20114;-70
2020/12/30 00:56:18;;;;;;;4.20;2.00;;;2.30;99.90;;;;;;5090296;28;20036;-73
2020/12/30 00:58:43;;;;;;;2.75;1.60;;;2.20;99.90;;;;;;5090293;28;20080;-73
2020/12/30 01:01:09;;;;;;;2.83;1.60;;;2.20;99.90;;;;;;5087779;28;20077;-74
2020/12/30 01:03:36;;;;;;;2.47;1.67;;;2.10;99.90;;;;;;5091410;28;20503;-69
2020/12/30 01:06:03;;;;;;;5.97;1.92;;;2.00;99.90;;;;;;5091049;28;20024;-71
2020/12/30 01:08:29;;;;;;;2.53;1.60;;;2.00;99.90;;;;;;5089903;28;20024;-70
2020/12/30 01:10:55;;;;;;;3.53;1.73;;;1.90;99.90;;;;;;5091644;28;20035;-70
2020/12/30 01:13:21;;;;;;;2.50;1.70;;;1.90;99.90;;;;;;5072309;28;20043;-73
2020/12/30 01:15:47;;;;;;;2.90;1.42;;;1.90;99.90;;;;;;5091362;28;20457;-71
2020/12/30 01:18:13;;;;;;;2.88;1.67;;;1.80;99.90;;;;;;5090383;28;20028;-73
2020/12/30 01:20:39;;;;;;;2.42;1.55;;;1.90;99.90;;;;;;5091317;28;20035;-71
2020/12/30 01:23:05;;;;;;;4.25;2.13;;;1.90;99.90;;;;;;5090853;28;20040;-69
2020/12/30 01:25:31;;;;;;;3.28;1.65;;;1.90;99.90;;;;;;5090403;28;20054;-70
2020/12/30 01:27:56;;;;;;;3.50;1.80;;;2.00;99.90;;;;;;5090801;28;20372;-71
2020/12/30 01:30:23;;;;;;;4.20;1.63;;;2.00;99.90;;;;;;5090065;28;20051;-72
2020/12/30 01:32:48;;;;;;;6.53;1.80;;;2.00;99.90;;;;;;5091295;28;20040;-72
2020/12/30 01:35:14;;;;;;;2.15;1.33;;;2.10;99.90;;;;;;5087389;28;20028;-72
2020/12/30 01:37:41;;;;;;;1.77;1.40;;;2.10;99.90;;;;;;5073040;28;20117;-71
2020/12/30 01:40:07;;;;;;;2.50;1.45;;;2.20;99.90;;;;;;5090969;28;20049;-71
2020/12/30 01:42:59;;;;;;;1.75;1.38;;;2.20;99.90;;;;;;5090811;28;20036;-70
2020/12/30 01:45:25;;;;;;;3.50;1.75;;;2.40;99.90;;;;;;5077183;28;20072;-70
2020/12/30 01:47:50;;;;;;;4.53;1.85;;;2.40;99.90;;;;;;5090859;28;20051;-71
2020/12/30 01:50:16;;;;;;;1.88;1.73;;;2.40;99.90;;;;;;5090801;28;20024;-71
2020/12/30 01:52:43;;;;;;;2.47;1.58;;;2.40;99.90;;;;;;5091315;28;20131;-71
2020/12/30 01:55:11;;;;;;;1.85;1.70;;;2.40;99.90;;;;;;5090860;28;20063;-76
2020/12/30 01:57:37;;;;;;;3.10;1.48;;;2.50;99.90;;;;;;5090914;28;20485;-72
2020/12/30 02:00:09;;;;;;;2.17;1.42;;;2.50;99.90;;;;;;5090233;28;20050;-70
2020/12/30 02:02:37;;;;;;;2.85;1.73;;;2.50;99.90;;;;;;5090499;28;20043;-71
2020/12/30 02:05:07;;;;;;;2.05;1.67;;;2.50;99.90;;;;;;5090371;28;20099;-71
2020/12/30 02:07:33;;;;;;;2.50;1.35;;;2.50;99.90;;;;;;5089606;28;20020;-71
2020/12/30 02:10:02;;;;;;;4.43;1.45;;;2.50;99.90;;;;;;5090907;28;20473;-72
2020/12/30 02:12:28;;;;;;;4.20;1.67;;;2.50;99.90;;;;;;5089815;28;20028;-73
2020/12/30 02:14:54;;;;;;;2.97;1.60;;;2.50;99.90;;;;;;5074358;28;20032;-71
2020/12/30 02:17:20;;;;;;;2.58;1.70;;;2.50;99.90;;;;;;5075732;28;20032;-71
2020/12/30 02:19:46;;;;;;;3.50;1.40;;;2.50;99.90;;;;;;5093785;28;20069;-71
2020/12/30 02:22:20;;;;;;;2.17;1.67;;;2.60;99.90;;;;;;5093831;28;20032;-74
2020/12/30 02:24:46;;;;;;;2.35;1.50;;;2.50;99.90;;;;;;5093991;28;20036;-71
2020/12/30 02:27:12;;;;;;;2.00;1.60;;;2.50;99.90;;;;;;5075665;28;20115;-74
2020/12/30 02:29:37;;;;;;;2.55;1.60;;;2.60;99.90;;;;;;5093530;28;20032;-71
2020/12/30 02:32:03;;;;;;;3.25;1.60;;;2.60;99.90;;;;;;5075738;28;20058;-70
2020/12/30 02:34:29;;;;;;;2.47;1.50;;;2.60;99.90;;;;;;5092607;28;20107;-72
2020/12/30 02:36:56;;;;;;;3.10;1.42;;;2.60;99.90;;;;;;5093883;28;20032;-69
2020/12/30 02:39:22;;;;;;;3.20;1.25;;;2.60;99.90;;;;;;5092684;28;20106;-72
2020/12/30 02:41:48;;;;;;;4.00;1.55;;;2.60;99.90;;;;;;5093590;28;20115;-71
2020/12/30 02:44:14;;;;;;;2.95;1.48;;;2.60;99.90;;;;;;5093257;28;20107;-74
2020/12/30 02:46:40;;;;;;;1.75;1.27;;;2.60;99.90;;;;;;5093939;28;20046;-72
2020/12/30 02:49:06;;;;;;;2.13;1.40;;;2.60;99.90;;;;;;5093925;28;20020;-70
2020/12/30 02:51:32;;;;;;;3.30;1.33;;;2.50;99.90;;;;;;5092292;28;20074;-71
2020/12/30 02:53:58;;;;;;;3.20;1.27;;;2.50;99.90;;;;;;5093533;28;20027;-73
2020/12/30 02:56:23;;;;;;;1.83;1.23;;;2.40;99.90;;;;;;5092202;28;20434;-71
2020/12/30 02:58:50;;;;;;;2.03;1.27;;;2.50;99.90;;;;;;5093054;28;20020;-70
2020/12/30 03:01:16;;;;;;;2.28;1.40;;;2.40;99.90;;;;;;5092327;28;20404;-73
2020/12/30 03:03:42;;;;;;;2.80;1.45;;;2.50;99.90;;;;;;5091694;28;20042;-72
2020/12/30 03:06:09;;;;;;;5.07;1.10;;;2.40;99.90;;;;;;5074106;28;20461;-72
2020/12/30 03:08:36;;;;;;;2.38;1.20;;;2.50;99.90;;;;;;5074790;28;20030;-71
2020/12/30 03:11:02;;;;;;;4.78;1.08;;;2.60;99.90;;;;;;5075571;28;20115;-71
2020/12/30 03:13:28;;;;;;;1.13;1.00;;;2.60;99.90;;;;;;5092395;28;20043;-71
2020/12/30 03:15:53;;;;;;;5.43;1.13;;;2.60;99.90;;;;;;5093019;28;20028;-72
2020/12/30 03:18:20;;;;;;;4.75;1.00;;;2.60;99.90;;;;;;5092389;28;20453;-71
2020/12/30 03:20:46;;;;;;;1.85;1.35;;;2.60;99.90;;;;;;5093196;28;20032;-71
2020/12/30 03:23:12;;;;;;;2.20;1.10;;;2.70;99.90;;;;;;5092632;28;20059;-75
2020/12/30 03:25:37;;;;;;;3.38;1.85;;;2.70;99.90;;;;;;5092037;28;20054;-72
2020/12/30 03:28:03;;;;;;;2.53;0.70;;;2.70;99.90;;;;;;5092823;28;20048;-71
2020/12/30 03:30:30;;;;;;;1.90;0.93;;;2.80;99.90;;;;;;5091816;28;20032;-71
2020/12/30 03:32:56;;;;;;;1.48;0.88;;;2.80;99.90;;;;;;5092827;28;20043;-73
2020/12/30 03:35:25;;;;;;;1.90;0.90;;;2.90;99.90;;;;;;5065789;28;20492;-72
2020/12/30 03:37:54;;;;;;;3.13;0.90;;;2.90;99.90;;;;;;5092622;28;20063;-72
2020/12/30 03:40:20;;;;;;;4.13;1.35;;;2.90;99.90;;;;;;5091855;28;20032;-71
2020/12/30 03:42:46;;;;;;;4.20;1.38;;;2.90;99.90;;;;;;5092494;28;20027;-70
2020/12/30 03:45:11;;;;;;;3.95;1.20;;;2.90;99.90;;;;;;5092993;28;20035;-71
2020/12/30 03:47:37;;;;;;;2.63;0.90;;;2.90;99.90;;;;;;5092216;28;20028;-72
2020/12/30 03:50:04;;;;;;;3.05;1.08;;;2.90;99.90;;;;;;5092529;28;20034;-71
2020/12/30 03:52:30;;;;;;;0.95;0.70;;;2.90;99.90;;;;;;5091425;28;20113;-69
2020/12/30 03:54:55;;;;;;;3.20;1.33;;;2.80;99.90;;;;;;5092557;28;20469;-71
2020/12/30 03:57:21;;;;;;;2.75;0.88;;;2.80;99.90;;;;;;5073773;28;20020;-71
2020/12/30 03:59:47;;;;;;;3.25;0.70;;;2.80;99.90;;;;;;5092795;28;20081;-71
2020/12/30 04:02:12;;;;;;;2.22;0.80;;;2.70;99.90;;;;;;5092443;28;20043;-73
2020/12/30 04:04:38;;;;;;;4.93;1.10;;;2.70;99.90;;;;;;5084271;28;20461;-71
2020/12/30 04:07:04;;;;;;;5.22;1.00;;;2.70;99.90;;;;;;5092280;28;20473;-71
2020/12/30 04:09:30;;;;;;;4.38;1.08;;;2.70;99.90;;;;;;5091632;28;20471;-71
2020/12/30 04:11:55;;;;;;;3.67;1.10;;;2.60;99.90;;;;;;5091944;28;20032;-71
2020/12/30 04:14:21;;;;;;;2.20;1.05;;;2.60;99.90;;;;;;5091967;28;20028;-72
2020/12/30 04:16:46;;;;;;;2.97;1.30;;;2.60;99.90;;;;;;5092089;28;20122;-73
2020/12/30 04:19:12;;;;;;;3.53;0.88;;;2.50;99.90;;;;;;5092719;28;20457;-71
2020/12/30 04:21:38;;;;;;;2.13;0.75;;;2.40;99.90;;;;;;5073011;28;20060;-72
2020/12/30 04:24:04;;;;;;;6.38;1.20;;;2.40;99.90;;;;;;5091921;28;20031;-73
2020/12/30 04:26:29;;;;;;;3.33;0.90;;;2.30;99.90;;;;;;5091374;28;20031;-73
2020/12/30 04:28:55;;;;;;;3.55;1.00;;;2.30;99.90;;;;;;5091574;28;20389;-73
2020/12/30 04:31:21;;;;;;;3.15;0.80;;;2.20;99.90;;;;;;5091759;28;20028;-74
2020/12/30 04:33:47;;;;;;;2.97;1.20;;;2.20;99.90;;;;;;5089383;28;20392;-72
2020/12/30 04:36:13;;;;;;;2.97;1.10;;;2.10;99.90;;;;;;5085318;28;20032;-72
2020/12/30 04:38:40;;;;;;;2.53;1.30;;;2.10;99.90;;;;;;5090034;28;20465;-72
2020/12/30 04:41:09;;;;;;;3.45;1.15;;;2.10;99.90;;;;;;5092035;28;20078;-72
2020/12/30 04:43:37;;;;;;;3.58;1.08;;;2.10;99.90;;;;;;5090769;28;20132;-73
2020/12/30 04:46:04;;;;;;;2.47;1.10;;;2.10;99.90;;;;;;5091870;28;20073;-71
2020/12/30 04:48:32;;;;;;;4.80;1.17;;;2.10;99.90;;;;;;5090575;28;20032;-72
2020/12/30 04:50:58;;;;;;;2.85;1.20;;;2.20;99.90;;;;;;5091633;28;20461;-74
2020/12/30 04:53:25;;;;;;;1.88;1.00;;;2.20;99.90;;;;;;5090805;28;20044;-74
2020/12/30 04:55:51;;;;;;;3.50;1.00;;;2.20;99.90;;;;;;5091537;28;20024;-72
2020/12/30 04:58:20;;;;;;;1.77;0.93;;;2.20;99.90;;;;;;5072850;28;20043;-75
2020/12/30 05:00:46;;;;;;;5.88;1.00;;;2.20;99.90;;;;;;5091592;28;20041;-74
2020/12/30 05:03:14;;;;;;;4.53;1.00;;;2.30;99.90;;;;;;5073390;28;20032;-72
2020/12/30 05:05:41;;;;;;;3.67;1.00;;;2.30;99.90;;;;;;5083946;28;20039;-72
2020/12/30 05:08:12;;;;;;;7.78;1.30;;;2.40;99.90;;;;;;5091885;28;20028;-72
2020/12/30 05:10:39;;;;;;;4.88;1.10;;;2.40;99.90;;;;;;5089984;28;20640;-73
2020/12/30 05:13:08;;;;;;;2.28;1.00;;;2.40;99.90;;;;;;5091288;28;20392;-75
2020/12/30 05:15:34;;;;;;;4.45;1.35;;;2.40;99.90;;;;;;5072530;28;20179;-72
2020/12/30 05:18:06;;;;;;;4.68;0.95;;;2.40;99.90;;;;;;5090802;28;20173;-74
2020/12/30 05:20:35;;;;;;;3.13;0.95;;;2.40;99.90;;;;;;5090940;28;20512;-74
2020/12/30 05:23:02;;;;;;;2.60;0.77;;;2.40;99.90;;;;;;5091490;28;20024;-75
2020/12/30 05:25:28;;;;;;;4.57;1.00;;;2.40;99.90;;;;;;5090556;28;20528;-74
2020/12/30 05:27:54;;;;;;;1.48;0.70;;;2.40;99.90;;;;;;5091247;28;20028;-73
2020/12/30 05:30:23;;;;;;;2.10;0.82;;;2.40;99.90;;;;;;5090608;28;20058;-76
2020/12/30 05:32:53;;;;;;;4.77;1.30;;;2.30;99.90;;;;;;5090965;28;20127;-73
2020/12/30 05:35:20;;;;;;;2.58;0.85;;;2.20;99.90;;;;;;5090541;28;20524;-76
2020/12/30 05:37:47;;;;;;;2.15;0.90;;;2.20;99.90;;;;;;5090571;28;20044;-70
2020/12/30 05:40:29;;;;;;;3.63;1.10;;;2.10;99.90;;;;;;5073272;28;20059;-71
2020/12/30 05:43:08;;;;;;;2.30;1.20;;;2.10;99.90;;;;;;5073748;28;20028;-74
2020/12/30 05:45:49;;;;;;;3.33;1.35;;;2.10;99.90;;;;;;5090837;28;20173;-74
2020/12/30 05:48:16;;;;;;;7.57;0.95;;;2.00;99.90;;;;;;5091064;28;20519;-72
2020/12/30 05:50:53;;;;;;;4.47;1.30;;;2.00;99.90;;;;;;5075911;28;20020;-72
2020/12/30 05:53:21;;;;;;;2.47;1.00;;;2.00;99.90;;;;;;5094541;28;20040;-74
2020/12/30 05:55:49;;;;;;;5.65;1.10;;;2.00;99.90;;;;;;5095028;28;20089;-72
2020/12/30 05:58:17;;;;;;;3.58;1.10;;;2.00;99.90;;;;;;5076571;28;20031;-70
2020/12/30 06:00:43;;;;;;;5.32;0.70;;;2.00;99.90;;;;;;5073204;28;20110;-73
2020/12/30 06:03:13;;;;;;;4.30;0.77;;;2.00;99.90;;;;;;5087979;28;20039;-72
2020/12/30 06:05:39;;;;;;;9.18;1.45;;;1.90;99.90;;;;;;5085898;28;20020;-70
2020/12/30 06:08:05;;;;;;;5.00;1.13;;;1.90;99.90;;;;;;5088161;28;20146;-74
2020/12/30 06:10:32;;;;;;;3.13;1.10;;;1.90;99.90;;;;;;5087938;28;20024;-70
2020/12/30 06:12:59;;;;;;;2.15;0.60;;;1.90;99.90;;;;;;5092361;28;20359;-75
2020/12/30 06:15:27;;;;;;;2.47;1.02;;;1.90;99.90;;;;;;5091290;28;20023;-73
2020/12/30 06:17:53;;;;;;;3.20;1.00;;;2.00;99.90;;;;;;5089530;28;20032;-74
2020/12/30 06:20:32;;;;;;;2.83;1.30;;;2.00;99.90;;;;;;5089661;28;20073;-76
2020/12/30 06:23:02;;;;;;;3.90;1.30;;;2.00;99.90;;;;;;5085464;28;20033;-76
2020/12/30 06:25:29;;;;;;;;;;;2.00;99.90;;;;;;5082637;28;20024;-76
2020/12/30 06:27:55;;;;;;;5.95;1.10;;;2.00;99.90;;;;;;5085201;28;19953;-76
2020/12/30 06:30:22;;;;;;;2.22;1.00;;;2.00;99.90;;;;;;5088505;28;20028;-75
2020/12/30 06:32:49;;;;;;;4.40;1.23;;;1.90;99.90;;;;;;5067710;28;20086;-75
2020/12/30 06:35:24;;;;;;;4.30;1.50;;;1.90;99.90;;;;;;5089934;28;20028;-75
2020/12/30 06:37:50;;;;;;;6.30;1.92;;;1.80;99.90;;;;;;5087042;28;20031;-76
2020/12/30 06:40:18;;;;;;;2.55;1.30;;;1.70;99.90;;;;;;5089248;28;20032;-76
2020/12/30 06:42:45;;;;;;;4.75;2.00;;;1.70;99.90;;;;;;5090815;28;20042;-77
2020/12/30 06:45:14;;;;;;;4.00;1.85;;;1.60;99.90;;;;;;5089103;28;20077;-76
2020/12/30 06:48:00;;;;;;;2.92;1.20;;;1.50;99.90;;;;;;5088620;28;20619;-76
2020/12/30 06:50:26;;;;;;;5.45;2.58;;;1.50;99.90;;;;;;5090622;28;20372;-73
2020/12/30 06:52:52;;;;;;;12.80;1.90;;;1.40;99.90;;;;;;5089208;28;20063;-72
2020/12/30 06:55:44;;;;;;;3.70;1.65;;;1.40;99.90;;;;;;5087501;28;20024;-78
2020/12/30 06:58:29;;;;;;;7.22;1.90;;;1.30;99.90;;;;;;5087858;28;20032;-71
2020/12/30 07:01:00;;;;;;;9.77;1.80;;;1.30;99.90;;;;;;5084127;28;20036;-75
2020/12/30 07:03:31;;;;;;;3.75;1.60;;;1.30;99.90;;;;;;5085680;28;20039;-74
2020/12/30 07:06:20;;;;;;;5.85;1.85;;;1.30;99.90;;;;;;5091134;28;20028;-71
2020/12/30 07:08:46;;;;;;;3.80;1.80;;;1.40;99.90;;;;;;5085888;28;20039;-73
2020/12/30 07:11:11;;;;;;;12.52;1.77;;;1.40;99.90;;;;;;5085218;28;20389;-74
2020/12/30 07:13:40;;;;;;;2.90;1.40;;;1.40;99.90;;;;;;5085832;28;20492;-72
2020/12/30 07:16:14;;;;;;;4.80;2.00;;;1.40;99.90;;;;;;5088633;28;20036;-73
2020/12/30 07:18:42;;;;;;;4.70;1.00;;;1.50;99.90;;;;;;5086831;28;20209;-72
2020/12/30 07:21:16;;;;;;;3.08;1.60;;;1.60;99.90;;;;;;5087163;28;20024;-73
2020/12/30 07:23:42;;;;;;;8.38;1.88;;;1.70;99.90;;;;;;5089217;28;20519;-72
2020/12/30 07:26:19;;;;;;;4.28;1.10;;;1.80;99.90;;;;;;5087711;28;20042;-74
2020/12/30 07:28:46;;;;;;;2.85;1.33;;;1.90;99.90;;;;;;5085156;28;20027;-74
2020/12/30 07:31:13;;;;;;;3.78;1.20;;;1.90;99.90;;;;;;5090203;28;20512;-73
2020/12/30 07:33:39;;;;;;;2.05;1.05;;;1.90;99.90;;;;;;5087894;28;20615;-77
2020/12/30 07:36:08;;;;;;;5.70;1.77;;;1.90;99.90;;;;;;5089586;28;20028;-75
2020/12/30 07:38:34;;;;;;;3.15;1.10;;;1.90;99.90;;;;;;5084066;28;20036;-73
2020/12/30 07:41:10;;;;;;;2.72;1.10;;;2.00;99.90;;;;;;5088880;28;20024;-73
2020/12/30 07:43:53;;;;;;;4.20;1.58;;;2.10;99.90;;;;;;5086900;28;20127;-75
2020/12/30 07:46:21;;;;;;;3.38;1.33;;;2.20;99.90;;;;;;5088141;28;20035;-80
2020/12/30 07:48:47;;;;;;;6.47;1.67;;;2.20;99.90;;;;;;5087579;28;20017;-72
2020/12/30 07:51:13;;;;;;;2.72;1.30;;;2.20;99.90;;;;;;5069577;28;20093;-71
2020/12/30 07:53:42;;;;;;;3.42;1.73;;;2.20;99.90;;;;;;5087116;28;20048;-69
2020/12/30 07:56:25;;;;;;;3.45;1.30;;;2.30;99.90;;;;;;5086524;28;20028;-70
2020/12/30 07:58:50;;;;;;;2.33;1.20;;;2.30;99.90;;;;;;5084897;28;20021;-67
2020/12/30 08:01:18;;;;;;;5.50;1.30;;;2.30;99.90;;;;;;5089336;28;20031;-71
2020/12/30 08:03:44;;;;;;;3.10;1.27;;;2.40;99.90;;;;;;5086774;28;20040;-68
2020/12/30 08:06:10;;;;;;;2.90;1.15;;;2.40;99.90;;;;;;5087046;28;20082;-66
2020/12/30 08:08:42;;;;;;;3.25;1.02;;;2.40;99.90;;;;;;5086986;28;20070;-67
2020/12/30 08:11:07;;;;;;;5.07;1.00;;;2.50;99.90;;;;;;5083916;28;20020;-67
2020/12/30 08:13:35;;;;;;;3.35;0.98;;;2.60;99.90;;;;;;5086467;28;20036;-65
2020/12/30 08:16:00;;;;;;;2.20;0.90;;;2.60;99.90;;;;;;5088379;28;20032;-67
2020/12/30 08:18:26;;;;;;;2.78;1.00;;;2.60;99.90;;;;;;5087580;28;20023;-67
2020/12/30 08:20:51;;;;;;;3.72;1.00;;;2.70;99.90;;;;;;5084199;28;20024;-70
2020/12/30 08:23:18;;;;;;;1.50;0.82;;;2.80;99.90;;;;;;5086827;28;20031;-71
2020/12/30 08:25:48;;;;;;;1.67;0.85;;;2.90;99.90;;;;;;5088501;28;20457;-64
2020/12/30 08:28:14;;;;;;;2.38;0.90;;;3.00;98.80;;;;;;5086207;28;20028;-66
2020/12/30 08:30:42;;;;;;;3.58;1.05;;;3.00;98.00;;;;;;5084578;28;20469;-69
2020/12/30 08:33:11;;;;;;;2.40;0.90;;;3.10;97.50;;;;;;5089859;28;20040;-68
2020/12/30 08:35:45;;;;;;;1.20;0.63;;;3.20;96.80;;;;;;5070047;28;20032;-70
2020/12/30 08:38:17;;;;;;;2.08;0.85;;;3.20;96.10;;;;;;5087065;28;20024;-71
2020/12/30 08:40:53;;;;;;;3.35;0.77;;;3.30;95.10;;;;;;5084536;28;20133;-65
2020/12/30 08:43:44;;;;;;;5.80;0.75;;;3.40;93.70;;;;;;5086634;28;20037;-70
2020/12/30 08:46:22;;;;;;;2.40;0.70;;;3.40;93.90;;;;;;5086774;28;20031;-67
2020/12/30 08:48:53;;;;;;;3.78;1.17;;;3.50;93.50;;;;;;5084365;28;20052;-67
2020/12/30 08:51:29;;;;;;;3.92;0.77;;;3.40;93.80;;;;;;5086941;28;20020;-64
2020/12/30 08:53:54;;;;;;;1.77;0.98;;;3.50;93.60;;;;;;5085380;28;20082;-66
2020/12/30 08:56:21;;;;;;;2.58;0.98;;;3.50;93.00;;;;;;5081825;28;20062;-71
2020/12/30 08:58:56;;;;;;;3.47;0.75;;;3.50;92.70;;;;;;5083264;28;20021;-68
2020/12/30 09:01:26;;;;;;;3.05;0.73;;;3.60;92.80;;;;;;5087348;28;20032;-69
2020/12/30 09:03:52;;;;;;;1.00;0.90;;;3.60;92.30;;;;;;5079069;28;20040;-65
2020/12/30 09:06:29;;;;;;;1.15;0.60;;;3.60;91.90;;;;;;5074707;28;20078;-69
2020/12/30 09:09:06;;;;;;;2.05;0.90;;;3.60;92.70;;;;;;5082376;28;20039;-70
2020/12/30 09:11:32;;;;;;;2.72;0.98;;;3.70;92.60;;;;;;5078289;28;20107;-68
2020/12/30 09:13:58;;;;;;;3.03;0.80;;;3.70;92.40;;;;;;5087007;28;20557;-66
2020/12/30 09:16:23;;;;;;;2.40;1.00;;;3.70;92.60;;;;;;5087189;28;20031;-68
2020/12/30 09:18:50;;;;;;;5.30;1.00;;;3.70;92.10;;;;;;5091146;28;20377;-68
2020/12/30 09:21:25;;;;;;;5.57;1.05;;;3.80;91.80;;;;;;5087938;28;20639;-71
2020/12/30 09:23:51;;;;;;;3.08;0.98;;;3.80;92.10;;;;;;5083371;28;20107;-68
2020/12/30 09:26:30;;;;;;;2.45;1.17;;;3.80;92.10;;;;;;5089040;28;20552;-67
2020/12/30 09:28:57;;;;;;;3.57;1.20;;;3.80;91.00;;;;;;5094830;28;20054;-67
2020/12/30 09:31:24;;;;;;;3.35;1.00;;;3.80;91.50;;;;;;5094854;28;20027;-71
2020/12/30 09:33:50;;;;;;;2.45;0.80;;;3.90;90.80;;;;;;5090735;28;20047;-70
2020/12/30 09:36:17;;;;;;;2.72;0.90;;;3.90;91.00;;;;;;5092842;28;20079;-68
2020/12/30 09:38:43;;;;;;;2.88;1.00;;;3.90;90.50;;;;;;5094051;28;20524;-67
2020/12/30 09:41:13;;;;;;;2.70;0.90;;;4.00;90.80;;;;;;5095050;28;20153;-67
2020/12/30 09:43:46;;;;;;;3.13;1.05;;;4.00;91.10;;;;;;5093847;28;20024;-69
2020/12/30 09:46:21;;;;;;;3.83;1.00;;;4.00;90.50;;;;;;5081262;28;20060;-69
2020/12/30 09:48:48;;;;;;;3.85;0.77;;;4.00;90.90;;;;;;5090382;28;20464;-72
2020/12/30 09:51:17;;;;;;;2.22;0.95;;;4.00;90.70;;;;;;5090012;28;20032;-68
2020/12/30 09:53:44;;;;;;;4.35;1.17;;;4.00;90.90;;;;;;5089101;28;20134;-69
2020/12/30 09:56:14;;;;;;;2.35;0.73;;;4.10;90.50;;;;;;5095015;28;20461;-68
2020/12/30 09:58:40;;;;;;;4.10;1.10;;;4.20;90.10;;;;;;5082755;28;20107;-70
2020/12/30 10:01:06;;;;;;;2.45;1.10;;;4.20;90.20;;;;;;5080156;28;20493;-69
2020/12/30 10:03:32;;;;;;;5.32;1.13;;;4.20;89.30;;;;;;5093968;28;20048;-69
2020/12/30 10:05:58;;;;;;;2.15;1.17;;;4.20;89.80;;;;;;5096889;28;20031;-72
2020/12/30 10:08:23;;;;;;;2.97;0.90;;;4.20;89.50;;;;;;5093550;28;20036;-73
2020/12/30 10:10:50;;;;;;;3.53;1.27;;;4.20;89.40;;;;;;5093869;28;20028;-68
2020/12/30 10:13:16;;;;;;;7.07;1.63;;;4.10;90.00;;;;;;5094357;28;20046;-66
2020/12/30 10:15:41;;;;;;;2.13;1.27;;;4.10;90.30;;;;;;5098397;28;20023;-70
2020/12/30 10:18:07;;;;;;;2.42;0.82;;;4.20;90.10;;;;;;5089035;28;20028;-71
2020/12/30 10:20:33;;;;;;;2.60;1.08;;;4.20;89.40;;;;;;5076325;28;20039;-68
2020/12/30 10:22:58;;;;;;;5.70;1.35;;;4.20;90.10;;;;;;5077141;28;20507;-66
2020/12/30 10:25:25;;;;;;;5.32;1.35;;;4.20;88.80;;;;;;5094162;28;20473;-75
2020/12/30 10:27:51;;;;;;;3.15;1.00;;;4.30;89.00;;;;;;5084988;28;20021;-72
2020/12/30 10:30:18;;;;;;;2.42;1.10;;;4.20;88.70;;;;;;5089164;28;20020;-72
2020/12/30 10:32:44;;;;;;;3.38;1.48;;;4.20;89.70;;;;;;5086352;28;20101;-69
2020/12/30 10:35:10;;;;;;;4.43;1.55;;;4.30;89.20;;;;;;5091561;28;20112;-68
2020/12/30 10:37:37;;;;;;;5.80;1.02;;;4.30;89.10;;;;;;5087984;28;20031;-70
2020/12/30 10:40:04;;;;;;;2.97;1.25;;;4.40;88.30;;;;;;5092874;28;20020;-76
2020/12/30 10:42:31;;;;;;;2.65;1.20;;;4.50;87.90;;;;;;5092915;28;20469;-77
2020/12/30 10:44:58;;;;;;;3.85;1.10;;;4.60;87.80;;;;;;5091883;28;20483;-75
2020/12/30 10:47:24;;;;;;;4.07;1.48;;;4.80;85.70;;;;;;5072969;28;20039;-70
2020/12/30 10:49:50;;;;;;;3.60;0.98;;;4.90;84.30;;;;;;5088759;28;20389;-70
2020/12/30 10:52:16;;;;;;;2.70;0.93;;;5.00;85.30;;;;;;5092740;28;20477;-71
2020/12/30 10:54:45;;;;;;;3.50;1.15;;;5.10;84.60;;;;;;5092479;28;20055;-71
2020/12/30 10:57:10;;;;;;;4.43;1.17;;;5.20;84.10;;;;;;5093853;28;20060;-70
2020/12/30 10:59:37;;;;;;;2.28;0.80;;;5.20;84.90;;;;;;5093235;28;20054;-70
2020/12/30 11:02:03;;;;;;;5.72;2.53;;;5.40;84.70;;;;;;5093235;28;20038;-70
2020/12/30 11:04:29;;;;;;;6.28;2.22;;;5.60;82.70;;;;;;5093247;28;20115;-68
2020/12/30 11:06:55;;;;;;;4.07;1.42;;;5.60;83.20;;;;;;5101876;28;20049;-68
2020/12/30 11:09:21;;;;;;;5.60;1.20;;;5.70;80.80;;;;;;5114166;28;20023;-68
2020/12/30 11:11:47;;;;;;;2.67;0.60;;;5.70;79.80;;;;;;5112506;28;20027;-68
2020/12/30 11:14:13;;;;;;;1.50;0.70;;;5.60;80.40;;;;;;5093215;28;20039;-67
2020/12/30 11:16:39;;;;;;;7.05;1.85;;;5.60;80.30;;;;;;5082111;28;20358;-67
2020/12/30 11:19:04;;;;;;;0.82;0.50;;;5.60;80.60;;;;;;5091102;28;20038;-67
2020/12/30 11:21:30;;;;;;;2.45;0.90;;;5.70;80.60;;;;;;5074429;28;20024;-67
2020/12/30 11:23:55;;;;;;;4.07;0.98;;;5.70;80.40;;;;;;5090133;28;20085;-67
2020/12/30 11:26:21;;;;;;;4.07;0.80;;;5.80;80.20;;;;;;5092650;28;20024;-67
2020/12/30 11:28:47;;;;;;;2.58;0.73;;;5.80;80.10;;;;;;5092252;28;20510;-67
2020/12/30 11:31:13;;;;;;;1.50;0.82;;;5.80;79.70;;;;;;5093216;28;20629;-67
2020/12/30 11:33:39;;;;;;;2.55;0.90;;;5.90;80.60;;;;;;5090620;28;20090;-66
2020/12/30 11:36:05;;;;;;;1.48;0.75;;;6.00;79.20;;;;;;5092786;28;20028;-68
2020/12/30 11:38:31;;;;;;;2.38;0.63;;;6.00;79.40;;;;;;5072478;28;20029;-69
2020/12/30 11:40:56;;;;;;;2.88;0.77;;;6.00;79.60;;;;;;5083354;28;20550;-69
2020/12/30 11:43:22;;;;;;;4.05;0.98;;;6.00;79.50;;;;;;5092709;28;20028;-69
2020/12/30 11:45:48;;;;;;;3.15;1.10;;;6.00;79.80;;;;;;5087966;28;20385;-69
2020/12/30 11:48:14;;;;;;;2.30;1.27;;;6.00;79.90;;;;;;5091744;28;20477;-68
2020/12/30 11:50:39;;;;;;;2.00;1.15;;;6.00;79.30;;;;;;5085582;28;20107;-68
2020/12/30 11:53:05;;;;;;;3.42;1.00;;;6.00;79.80;;;;;;5091827;28;20052;-70
2020/12/30 11:55:31;;;;;;;2.47;1.20;;;6.00;80.30;;;;;;5091256;28;20032;-70
2020/12/30 11:57:56;;;;;;;2.45;0.80;;;6.00;81.20;;;;;;5092873;28;20024;-68
2020/12/30 12:00:22;;;;;;;0.93;0.77;;;6.00;80.40;;;;;;5090140;28;20365;-71
2020/12/30 12:02:48;;;;;;;6.10;1.05;;;5.90;80.10;;;;;;5084036;28;20043;-71
2020/12/30 12:05:15;;;;;;;2.85;0.82;;;5.90;80.90;;;;;;5091677;28;20507;-73
2020/12/30 12:07:41;;;;;;;1.70;0.70;;;5.90;80.90;;;;;;5097279;28;20054;-72
2020/12/30 12:10:08;;;;;;;2.72;0.73;;;6.00;81.20;;;;;;5091401;28;20114;-68
2020/12/30 12:12:35;;;;;;;1.65;0.65;;;6.00;80.90;;;;;;5082917;28;20043;-71
2020/12/30 12:15:01;;;;;;;2.15;0.73;;;6.00;80.60;;;;;;5087956;28;20023;-66
2020/12/30 12:17:26;;;;;;;1.30;0.50;;;6.00;81.30;;;;;;5085721;28;20444;-66
2020/12/30 12:19:52;;;;;;;1.10;0.65;;;6.00;81.60;;;;;;5085813;28;20024;-71
2020/12/30 12:22:18;;;;;;;1.00;0.40;;;5.90;81.70;;;;;;5086412;28;20031;-75
2020/12/30 12:24:43;;;;;;;3.53;0.57;;;5.90;82.70;;;;;;5091150;28;20060;-72
2020/12/30 12:27:09;;;;;;;4.22;0.75;;;5.80;82.60;;;;;;5087824;28;20024;-68
2020/12/30 12:29:35;;;;;;;2.63;1.05;;;5.60;83.30;;;;;;5076062;28;20028;-71
2020/12/30 12:32:04;;;;;;;5.82;0.80;;;5.60;83.90;;;;;;5092541;28;20421;-72
2020/12/30 12:34:31;;;;;;;1.95;1.10;;;5.60;84.60;;;;;;5087911;28;20545;-70
2020/12/30 12:36:57;;;;;;;2.78;0.90;;;5.50;85.10;;;;;;5089202;28;20024;-71
2020/12/30 12:39:23;;;;;;;2.72;0.88;;;5.50;85.40;;;;;;5090556;28;20362;-70
2020/12/30 12:41:56;;;;;;;2.85;0.85;;;5.50;85.40;;;;;;5089495;28;20031;-71
2020/12/30 12:44:23;;;;;;;1.83;0.68;;;5.60;85.70;;;;;;5090755;28;20028;-69
2020/12/30 12:46:50;;;;;;;2.05;1.20;;;5.60;85.40;;;;;;5087159;28;20080;-72
2020/12/30 12:49:16;;;;;;;2.47;0.88;;;5.70;85.80;;;;;;5089864;28;20037;-72
2020/12/30 12:51:52;;;;;;;1.38;1.00;;;5.70;85.00;;;;;;5092201;28;20121;-71
2020/12/30 12:54:18;;;;;;;3.40;0.90;;;5.70;84.40;;;;;;5091045;28;20044;-70
2020/12/30 12:56:44;;;;;;;2.00;0.95;;;5.70;83.20;;;;;;5090562;28;20031;-72
2020/12/30 12:59:09;;;;;;;3.22;0.98;;;5.80;83.30;;;;;;5081592;28;20099;-71